Time;durP1;ratioP1;P1;durP2;ratioP2;P2;SDS_P1;SDS_P2;PMS_P1;PMS_P2;Temp;Humidity;BMP_temperature;BMP_pressure;BME280_temperature;BME280_humidity;BME280_pressure;Samples;Min_cycle;Max_cycle;Signal;HPM_P1;HPM_P2
2022/11/02 00:00:13;;;;;;;25.40;19.03;;;10.90;99.90;;;;;;5089164;28;20454;-80
2022/11/02 00:02:41;;;;;;;22.03;19.10;;;10.80;99.90;;;;;;5087731;28;20866;-80
2022/11/02 00:05:12;;;;;;;24.73;19.13;;;10.80;99.90;;;;;;5094413;28;20529;-80
2022/11/02 00:07:39;;;;;;;29.00;21.23;;;10.80;99.90;;;;;;5092531;28;20546;-80
2022/11/02 00:10:08;;;;;;;23.93;17.77;;;10.80;99.90;;;;;;5095382;28;20501;-80
2022/11/02 00:12:35;;;;;;;22.80;17.90;;;10.80;99.90;;;;;;5088013;28;20457;-80
2022/11/02 00:15:02;;;;;;;29.60;18.80;;;10.80;99.90;;;;;;5094690;28;20472;-81
2022/11/02 00:17:29;;;;;;;27.70;18.83;;;10.80;99.90;;;;;;5098540;28;20458;-80
2022/11/02 00:19:57;;;;;;;24.60;19.57;;;10.70;99.90;;;;;;5087744;28;20465;-80
2022/11/02 00:22:25;;;;;;;24.00;16.77;;;10.60;99.90;;;;;;5092559;28;20544;-80
2022/11/02 00:24:52;;;;;;;23.13;16.83;;;10.60;99.90;;;;;;5101161;28;20472;-81
2022/11/02 00:27:20;;;;;;;27.57;19.87;;;10.60;99.90;;;;;;5091295;28;21083;-80
2022/11/02 00:29:47;;;;;;;26.70;17.07;;;10.60;99.90;;;;;;5090617;28;20521;-80
2022/11/02 00:32:14;;;;;;;26.47;18.50;;;10.70;99.90;;;;;;5091294;28;20510;-81
2022/11/02 00:34:41;;;;;;;28.17;22.50;;;10.80;99.90;;;;;;5086613;28;20950;-81
2022/11/02 00:37:09;;;;;;;28.13;21.60;;;11.00;99.90;;;;;;5089980;28;20464;-80
2022/11/02 00:39:36;;;;;;;25.80;19.47;;;10.90;99.90;;;;;;5103728;28;20499;-80
2022/11/02 00:42:03;;;;;;;27.33;20.27;;;10.90;99.90;;;;;;5098755;28;20500;-80
2022/11/02 00:44:30;;;;;;;30.00;21.90;;;10.80;99.90;;;;;;5099180;28;20463;-81
2022/11/02 00:46:57;;;;;;;25.10;20.83;;;10.90;99.90;;;;;;5101178;28;20516;-80
2022/11/02 00:49:24;;;;;;;25.37;21.00;;;10.90;99.90;;;;;;5087406;28;20538;-80
2022/11/02 00:51:51;;;;;;;26.67;19.50;;;11.00;99.90;;;;;;5084396;28;20468;-81
2022/11/02 00:54:19;;;;;;;24.27;20.40;;;10.90;99.90;;;;;;5092495;28;20524;-81
2022/11/02 00:56:46;;;;;;;29.47;19.77;;;10.90;99.90;;;;;;5089189;28;20462;-80
2022/11/02 00:59:14;;;;;;;27.03;18.80;;;10.90;99.90;;;;;;5095870;28;20456;-81
2022/11/02 01:01:46;;;;;;;26.50;19.70;;;10.90;99.90;;;;;;5091825;28;20467;-81
2022/11/02 01:04:13;;;;;;;32.17;21.30;;;10.90;99.90;;;;;;5102184;28;20478;-80
2022/11/02 01:06:40;;;;;;;28.23;20.87;;;11.00;99.90;;;;;;5088456;28;20528;-80
2022/11/02 01:09:07;;;;;;;30.90;21.60;;;11.00;99.90;;;;;;5093100;28;20458;-80
2022/11/02 01:11:36;;;;;;;29.40;21.33;;;11.00;99.90;;;;;;5093746;28;21037;-80
2022/11/02 01:14:03;;;;;;;34.57;22.60;;;11.00;99.90;;;;;;5094793;28;20463;-81
2022/11/02 01:16:30;;;;;;;36.87;22.40;;;11.00;99.90;;;;;;5096004;28;20527;-81
2022/11/02 01:18:59;;;;;;;35.87;22.53;;;11.00;99.90;;;;;;5095500;28;20462;-80
2022/11/02 01:21:26;;;;;;;26.53;20.97;;;11.00;99.90;;;;;;5089503;28;20476;-80
2022/11/02 01:23:55;;;;;;;31.47;20.37;;;10.90;99.90;;;;;;5091327;28;20529;-80
2022/11/02 01:26:23;;;;;;;33.67;22.60;;;10.80;99.90;;;;;;5095378;28;20845;-80
2022/11/02 01:28:53;;;;;;;26.83;19.57;;;10.70;99.90;;;;;;5100522;28;20489;-80
2022/11/02 01:31:20;;;;;;;28.43;19.40;;;10.70;99.90;;;;;;5091014;28;20467;-81
2022/11/02 01:33:47;;;;;;;28.10;20.43;;;10.60;99.90;;;;;;5089424;28;20454;-80
2022/11/02 01:36:18;;;;;;;28.53;22.53;;;10.70;99.90;;;;;;5096078;28;20458;-80
2022/11/02 01:38:45;;;;;;;28.17;19.53;;;10.80;99.90;;;;;;5099366;28;20785;-80
2022/11/02 01:41:12;;;;;;;24.83;19.13;;;10.80;99.90;;;;;;5100640;28;20449;-81
2022/11/02 01:43:42;;;;;;;26.93;21.13;;;10.70;99.90;;;;;;5101423;28;20543;-80
2022/11/02 01:46:16;;;;;;;26.63;20.37;;;10.70;99.90;;;;;;5089589;28;20463;-84
2022/11/02 01:48:46;;;;;;;26.83;20.30;;;10.80;99.90;;;;;;5086924;28;20495;-81
2022/11/02 01:51:17;;;;;;;26.20;19.53;;;10.80;99.90;;;;;;5092108;28;20511;-81
2022/11/02 01:53:46;;;;;;;28.93;21.03;;;10.80;99.90;;;;;;5087511;28;20456;-84
2022/11/02 01:56:17;;;;;;;26.30;19.17;;;10.80;99.90;;;;;;5093885;28;20541;-83
2022/11/02 01:58:50;;;;;;;28.47;20.30;;;10.80;99.90;;;;;;5083144;28;20512;-81
2022/11/02 02:01:20;;;;;;;23.83;19.23;;;10.70;99.90;;;;;;5090312;28;20470;-81
2022/11/02 02:03:49;;;;;;;27.10;20.47;;;10.70;99.90;;;;;;5099033;28;20584;-81
2022/11/02 02:06:16;;;;;;;27.63;20.10;;;10.70;99.90;;;;;;5094284;28;20957;-81
2022/11/02 02:08:48;;;;;;;27.30;20.23;;;10.80;99.90;;;;;;5090914;28;20462;-81
2022/11/02 02:11:26;;;;;;;23.90;20.10;;;10.70;99.90;;;;;;5094397;28;20917;-81
2022/11/02 02:13:55;;;;;;;32.23;21.53;;;10.70;99.90;;;;;;5097105;28;20447;-81
2022/11/02 02:16:34;;;;;;;29.10;22.87;;;10.70;99.90;;;;;;5098866;28;20493;-81
2022/11/02 02:19:12;;;;;;;42.73;22.83;;;10.70;99.90;;;;;;5095585;28;20522;-83
2022/11/02 02:21:46;;;;;;;29.17;21.97;;;10.60;99.90;;;;;;5102410;28;20502;-83
2022/11/02 02:24:33;;;;;;;26.97;20.90;;;10.70;99.90;;;;;;5095348;28;20570;-81
2022/11/02 02:27:09;;;;;;;30.43;24.77;;;10.70;99.90;;;;;;5087409;28;20499;-80
2022/11/02 02:29:49;;;;;;;27.17;22.10;;;10.60;99.90;;;;;;5097535;28;20485;-81
2022/11/02 02:32:21;;;;;;;29.47;20.73;;;10.70;99.90;;;;;;5094717;28;20484;-81
2022/11/02 02:34:53;;;;;;;32.37;23.10;;;10.70;99.90;;;;;;5099822;28;20489;-80
2022/11/02 02:37:27;;;;;;;26.33;22.20;;;10.70;99.90;;;;;;5095493;28;20487;-81
2022/11/02 02:40:01;;;;;;;31.50;20.93;;;10.70;99.90;;;;;;5100494;28;20477;-80
2022/11/02 02:42:34;;;;;;;28.97;20.30;;;10.70;99.90;;;;;;5088158;28;20460;-81
2022/11/02 02:45:11;;;;;;;22.07;18.73;;;10.60;99.90;;;;;;5092060;28;20852;-81
2022/11/02 02:47:45;;;;;;;31.40;19.43;;;10.60;99.90;;;;;;5089451;28;20960;-81
2022/11/02 02:50:17;;;;;;;34.10;24.30;;;10.50;99.90;;;;;;5093638;28;20973;-81
2022/11/02 02:52:49;;;;;;;26.73;19.87;;;10.50;99.90;;;;;;5095540;28;20489;-81
2022/11/02 02:55:21;;;;;;;31.20;21.70;;;10.40;99.90;;;;;;5102063;28;21181;-80
2022/11/02 02:57:51;;;;;;;25.60;19.50;;;10.30;99.90;;;;;;5096063;28;20532;-81
2022/11/02 03:00:20;;;;;;;25.43;20.43;;;10.30;99.90;;;;;;5100855;28;21029;-81
2022/11/02 03:02:59;;;;;;;28.20;20.20;;;10.30;99.90;;;;;;5105598;28;20451;-81
2022/11/02 03:05:30;;;;;;;27.27;18.87;;;10.20;99.90;;;;;;5099380;28;20467;-80
2022/11/02 03:08:01;;;;;;;26.60;20.63;;;10.20;99.90;;;;;;5090453;28;20469;-80
2022/11/02 03:10:33;;;;;;;23.37;20.63;;;10.20;99.90;;;;;;5098639;28;20549;-80
2022/11/02 03:13:10;;;;;;;25.10;20.53;;;10.10;99.90;;;;;;5104342;28;20951;-81
2022/11/02 03:15:42;;;;;;;28.90;20.97;;;10.00;99.90;;;;;;5092907;28;20462;-80
2022/11/02 03:18:18;;;;;;;24.20;19.50;;;9.90;99.90;;;;;;5102359;28;20465;-81
2022/11/02 03:20:58;;;;;;;27.57;20.67;;;9.90;99.90;;;;;;5095415;28;20551;-81
2022/11/02 03:23:30;;;;;;;33.87;20.40;;;9.90;99.90;;;;;;5091731;28;20564;-80
2022/11/02 03:26:03;;;;;;;31.53;21.27;;;9.90;99.90;;;;;;5105945;28;20518;-81
2022/11/02 03:28:42;;;;;;;28.13;18.60;;;9.90;99.90;;;;;;5103463;28;20485;-80
2022/11/02 03:31:17;;;;;;;28.23;18.90;;;9.80;99.90;;;;;;5105839;28;20485;-80
2022/11/02 03:33:48;;;;;;;33.30;21.67;;;9.70;99.90;;;;;;5095255;28;20463;-80
2022/11/02 03:36:19;;;;;;;35.30;22.90;;;9.70;99.90;;;;;;5101385;28;20498;-80
2022/11/02 03:38:49;;;;;;;31.47;21.50;;;9.80;99.90;;;;;;5097701;28;20456;-80
2022/11/02 03:41:18;;;;;;;26.80;19.40;;;9.80;99.90;;;;;;5094317;28;20446;-80
2022/11/02 03:43:48;;;;;;;32.37;19.87;;;9.80;99.90;;;;;;5100954;28;21034;-80
2022/11/02 03:46:18;;;;;;;33.20;20.97;;;9.70;99.90;;;;;;5092603;28;20481;-81
2022/11/02 03:48:48;;;;;;;40.77;22.43;;;9.60;99.90;;;;;;5095606;28;21049;-81
2022/11/02 03:51:20;;;;;;;26.43;20.30;;;9.60;99.90;;;;;;5089243;28;20454;-80
2022/11/02 03:53:53;;;;;;;30.30;20.73;;;9.70;99.90;;;;;;5100904;28;20434;-81
2022/11/02 03:56:24;;;;;;;32.30;22.70;;;9.80;99.90;;;;;;5096720;28;20546;-80
2022/11/02 03:58:51;;;;;;;33.17;20.63;;;9.90;99.90;;;;;;5096873;28;20466;-80
2022/11/02 04:01:20;;;;;;;31.90;19.83;;;9.90;99.90;;;;;;5095519;28;20459;-80
2022/11/02 04:03:48;;;;;;;33.43;23.33;;;9.90;99.90;;;;;;5084602;28;20511;-80
2022/11/02 04:06:15;;;;;;;30.97;21.47;;;9.90;99.90;;;;;;5100513;28;20526;-80
2022/11/02 04:08:45;;;;;;;35.77;21.07;;;9.80;99.90;;;;;;5090561;28;20474;-81
2022/11/02 04:16:43;;;;;;;38.37;23.43;;;10.00;99.90;;;;;;5085669;28;20596;-80
2022/11/02 04:19:28;;;;;;;42.93;26.03;;;10.10;99.90;;;;;;5088503;28;20458;-80
2022/11/02 04:27:25;;;;;;;33.40;21.20;;;10.20;99.90;;;;;;5082730;28;20567;-80
2022/11/02 04:29:52;;;;;;;28.83;21.77;;;10.10;99.90;;;;;;5090536;28;20519;-81
2022/11/02 04:35:01;;;;;;;22.07;16.90;;;10.10;99.90;;;;;;5095669;28;20450;-80
2022/11/02 04:40:13;;;;;;;26.03;16.73;;;10.00;99.90;;;;;;5095850;28;20507;-80
2022/11/02 04:42:40;;;;;;;31.77;20.10;;;10.00;99.90;;;;;;5085638;28;20454;-80
2022/11/02 04:45:08;;;;;;;26.00;17.80;;;10.00;99.90;;;;;;5093246;28;20508;-82
2022/11/02 04:47:36;;;;;;;22.73;18.17;;;10.00;99.90;;;;;;5095246;28;20518;-80
2022/11/02 04:50:03;;;;;;;16.97;15.13;;;10.00;99.90;;;;;;5090540;28;21011;-80
2022/11/02 04:52:30;;;;;;;29.00;17.80;;;10.00;99.90;;;;;;5093474;28;20466;-81
2022/11/02 04:54:57;;;;;;;21.20;14.70;;;10.10;99.90;;;;;;5099328;28;21189;-81
2022/11/02 04:57:25;;;;;;;22.57;16.40;;;10.10;99.90;;;;;;5102317;28;20496;-81
2022/11/02 04:59:51;;;;;;;19.50;15.90;;;10.00;99.90;;;;;;5098069;28;20519;-81
2022/11/02 05:02:18;;;;;;;19.20;15.27;;;10.10;99.90;;;;;;5087235;28;20458;-80
2022/11/02 05:04:47;;;;;;;21.87;15.40;;;10.10;99.90;;;;;;5088787;28;20514;-80
2022/11/02 05:07:14;;;;;;;23.73;15.43;;;10.00;99.90;;;;;;5094478;28;21147;-81
2022/11/02 05:09:41;;;;;;;23.77;15.60;;;10.10;99.90;;;;;;5084410;28;20478;-80
2022/11/02 05:12:08;;;;;;;24.63;16.47;;;10.10;99.90;;;;;;5093903;28;20949;-81
2022/11/02 05:14:35;;;;;;;17.73;14.07;;;10.10;99.90;;;;;;5096930;28;20515;-81
2022/11/02 05:17:03;;;;;;;21.03;15.03;;;10.10;99.90;;;;;;5094345;28;20484;-81
2022/11/02 05:19:30;;;;;;;21.30;14.53;;;10.10;99.90;;;;;;5093175;28;20459;-81
2022/11/02 05:21:58;;;;;;;24.23;14.70;;;10.10;99.90;;;;;;5094544;28;20462;-80
2022/11/02 05:24:25;;;;;;;18.60;14.20;;;10.10;99.90;;;;;;5093208;28;20930;-81
2022/11/02 05:26:52;;;;;;;19.17;14.03;;;10.20;99.90;;;;;;5095582;28;20826;-81
2022/11/02 05:29:19;;;;;;;17.10;13.23;;;10.20;99.90;;;;;;5104801;28;20538;-80
2022/11/02 05:31:46;;;;;;;18.67;12.57;;;10.10;99.90;;;;;;5098738;28;20454;-80
2022/11/02 05:34:13;;;;;;;18.70;13.37;;;10.10;99.90;;;;;;5088616;28;20508;-81
2022/11/02 05:36:39;;;;;;;17.30;9.70;;;10.00;99.90;;;;;;5102088;28;20514;-80
2022/11/02 05:39:08;;;;;;;14.10;10.73;;;9.90;99.90;;;;;;5097731;28;20864;-81
2022/11/02 05:41:35;;;;;;;12.80;10.90;;;9.90;99.90;;;;;;5102159;28;20450;-81
2022/11/02 05:44:02;;;;;;;16.53;10.00;;;9.80;99.90;;;;;;5096468;28;20485;-81
2022/11/02 05:46:29;;;;;;;13.20;10.37;;;9.80;99.90;;;;;;5098380;28;20474;-81
2022/11/02 05:48:55;;;;;;;15.93;9.00;;;9.80;99.90;;;;;;5086940;28;21182;-81
2022/11/02 05:51:22;;;;;;;14.63;10.07;;;9.70;99.90;;;;;;5085952;28;20470;-81
2022/11/02 05:53:49;;;;;;;12.90;9.10;;;9.60;99.90;;;;;;5080771;28;21000;-81
2022/11/02 05:56:18;;;;;;;14.33;10.20;;;9.60;99.90;;;;;;5082245;28;20455;-81
2022/11/02 05:58:45;;;;;;;18.20;10.70;;;9.70;99.90;;;;;;5081888;28;20520;-81
2022/11/02 06:01:12;;;;;;;11.93;10.13;;;9.70;99.90;;;;;;5089417;28;20508;-81
2022/11/02 06:03:39;;;;;;;9.87;8.87;;;9.70;99.90;;;;;;5085625;28;20460;-81
2022/11/02 06:06:07;;;;;;;14.07;10.17;;;9.80;99.90;;;;;;5089491;28;20527;-82
2022/11/02 06:08:37;;;;;;;13.67;8.67;;;9.80;99.90;;;;;;5094716;28;20480;-81
2022/11/02 06:11:05;;;;;;;13.13;9.23;;;9.90;99.90;;;;;;5103414;28;20515;-80
2022/11/02 06:13:33;;;;;;;11.33;9.40;;;10.00;99.90;;;;;;5088125;28;20463;-80
2022/11/02 06:16:01;;;;;;;16.73;10.77;;;10.10;99.90;;;;;;5089748;28;20523;-82
2022/11/02 06:18:28;;;;;;;15.50;10.23;;;10.10;99.90;;;;;;5085870;28;20475;-80
2022/11/02 06:20:57;;;;;;;14.87;10.20;;;10.20;99.90;;;;;;5081704;28;20461;-79
2022/11/02 06:23:24;;;;;;;10.47;9.40;;;10.30;99.90;;;;;;5088549;28;20589;-80
2022/11/02 06:25:52;;;;;;;16.97;9.20;;;10.50;99.90;;;;;;5086923;28;20878;-80
2022/11/02 06:28:19;;;;;;;12.63;9.13;;;10.50;99.90;;;;;;5086761;28;20518;-80
2022/11/02 06:30:48;;;;;;;11.40;9.40;;;10.70;99.90;;;;;;5085130;28;20483;-80
2022/11/02 06:33:16;;;;;;;14.13;10.97;;;10.60;99.90;;;;;;5084151;28;20923;-80
2022/11/02 06:35:45;;;;;;;10.53;9.43;;;10.70;99.90;;;;;;5082068;28;20863;-81
2022/11/02 06:38:12;;;;;;;14.40;10.87;;;10.70;99.90;;;;;;5084762;28;20542;-81
2022/11/02 06:40:39;;;;;;;12.10;8.53;;;10.70;99.90;;;;;;5086171;28;20504;-81
2022/11/02 06:43:07;;;;;;;16.13;9.30;;;10.80;99.90;;;;;;5088389;28;20463;-81
2022/11/02 06:45:35;;;;;;;10.80;9.40;;;11.00;99.90;;;;;;5087463;28;20479;-81
2022/11/02 06:48:03;;;;;;;11.63;10.53;;;11.10;99.90;;;;;;5084061;28;20456;-81
2022/11/02 06:50:30;;;;;;;11.53;10.33;;;11.10;99.90;;;;;;5094448;28;20920;-81
2022/11/02 06:52:57;;;;;;;15.20;11.17;;;11.10;99.90;;;;;;5090805;28;20459;-81
2022/11/02 06:55:24;;;;;;;16.40;12.13;;;11.10;99.90;;;;;;5092803;28;20509;-81
2022/11/02 06:57:51;;;;;;;15.70;13.80;;;11.10;99.90;;;;;;5090469;28;20577;-81
2022/11/02 07:00:18;;;;;;;15.47;12.77;;;11.20;99.90;;;;;;5094628;28;20533;-81
2022/11/02 07:02:46;;;;;;;14.90;12.40;;;11.30;99.90;;;;;;5094735;28;20512;-81
2022/11/02 07:05:14;;;;;;;21.97;14.87;;;11.30;99.90;;;;;;5089979;28;20562;-81
2022/11/02 07:07:41;;;;;;;22.60;15.03;;;11.40;99.90;;;;;;5093513;28;20504;-81
2022/11/02 07:10:09;;;;;;;19.37;16.17;;;11.50;99.90;;;;;;5087686;28;20494;-81
2022/11/02 07:12:37;;;;;;;23.47;18.27;;;11.60;99.90;;;;;;5094368;28;20487;-81
2022/11/02 07:15:05;;;;;;;25.83;18.90;;;11.60;99.90;;;;;;5087248;28;21187;-81
2022/11/02 07:17:32;;;;;;;26.83;19.97;;;11.70;99.90;;;;;;5085840;28;20459;-81
2022/11/02 07:19:58;;;;;;;23.10;18.87;;;11.70;99.90;;;;;;5084809;28;20899;-82
2022/11/02 07:22:27;;;;;;;22.27;17.77;;;11.80;99.90;;;;;;5084910;28;20464;-82
2022/11/02 07:24:54;;;;;;;22.33;17.77;;;11.90;99.90;;;;;;5081961;28;20601;-82
2022/11/02 07:27:21;;;;;;;22.60;18.97;;;12.00;99.90;;;;;;5082875;27;20619;-81
2022/11/02 07:29:48;;;;;;;23.60;21.07;;;12.10;99.90;;;;;;5086305;28;20863;-82
2022/11/02 07:32:15;;;;;;;23.87;21.37;;;12.20;99.90;;;;;;5097046;27;21099;-82
2022/11/02 07:34:42;;;;;;;23.40;20.70;;;12.20;99.90;;;;;;5089922;28;20903;-82
2022/11/02 07:37:09;;;;;;;29.60;19.73;;;12.30;99.90;;;;;;5091820;28;20495;-82
2022/11/02 07:39:37;;;;;;;17.43;15.57;;;12.40;99.90;;;;;;5076467;28;20497;-82
2022/11/02 07:42:05;;;;;;;23.13;16.33;;;12.40;99.90;;;;;;5077202;28;20476;-82
2022/11/02 07:44:32;;;;;;;18.67;16.27;;;12.50;99.90;;;;;;5083282;28;20492;-82
2022/11/02 07:47:00;;;;;;;17.07;15.10;;;12.40;99.90;;;;;;5092536;28;20467;-82
2022/11/02 07:49:27;;;;;;;18.40;16.33;;;12.50;99.90;;;;;;5086523;28;20477;-82
2022/11/02 07:51:55;;;;;;;18.60;16.73;;;12.50;99.90;;;;;;5088531;27;20992;-82
2022/11/02 07:54:22;;;;;;;22.23;15.77;;;12.50;99.90;;;;;;5087817;28;20457;-82
2022/11/02 07:56:51;;;;;;;20.67;17.13;;;12.50;99.90;;;;;;5102853;28;20452;-82
2022/11/02 07:59:17;;;;;;;16.83;14.67;;;12.70;99.90;;;;;;5091337;28;20457;-82
2022/11/02 08:01:44;;;;;;;18.47;14.30;;;12.70;99.90;;;;;;5095618;27;20530;-82
2022/11/02 08:04:11;;;;;;;17.47;15.43;;;12.80;99.90;;;;;;5091476;28;20978;-82
2022/11/02 08:06:38;;;;;;;16.40;14.37;;;12.80;99.90;;;;;;5099255;28;20530;-81
2022/11/02 08:09:05;;;;;;;15.97;14.30;;;12.90;99.90;;;;;;5088105;27;20446;-82
2022/11/02 08:11:32;;;;;;;18.93;15.40;;;12.90;99.90;;;;;;5095572;28;20467;-82
2022/11/02 08:14:02;;;;;;;23.53;21.03;;;12.90;99.90;;;;;;5085743;28;20837;-81
2022/11/02 08:16:29;;;;;;;21.37;15.73;;;12.90;99.90;;;;;;5093298;28;20471;-82
2022/11/02 08:18:58;;;;;;;20.20;15.33;;;13.00;99.90;;;;;;5098288;28;20459;-82
2022/11/02 08:21:25;;;;;;;17.10;13.20;;;13.00;99.90;;;;;;5090179;28;20496;-82
2022/11/02 08:23:52;;;;;;;14.60;13.10;;;13.00;99.90;;;;;;5098658;28;20939;-82
2022/11/02 08:26:19;;;;;;;12.40;11.10;;;13.10;99.90;;;;;;5098966;28;20886;-82
2022/11/02 08:28:47;;;;;;;14.00;12.50;;;13.10;99.90;;;;;;5089558;28;20494;-82
2022/11/02 08:31:17;;;;;;;19.00;12.90;;;13.10;99.90;;;;;;5088522;28;20498;-82
2022/11/02 08:33:44;;;;;;;13.27;11.80;;;13.10;99.90;;;;;;5089969;28;20526;-81
2022/11/02 08:36:12;;;;;;;12.67;11.40;;;13.20;99.90;;;;;;5085476;28;20445;-82
2022/11/02 08:38:41;;;;;;;13.27;11.17;;;13.30;99.90;;;;;;5091008;28;20551;-82
2022/11/02 08:41:08;;;;;;;11.20;10.10;;;13.40;99.90;;;;;;5094740;28;20465;-82
2022/11/02 08:43:35;;;;;;;10.17;9.07;;;13.30;99.90;;;;;;5091698;28;20469;-82
2022/11/02 08:46:02;;;;;;;9.80;8.87;;;13.30;99.90;;;;;;5097823;28;20478;-81
2022/11/02 08:48:31;;;;;;;12.63;9.90;;;13.30;99.90;;;;;;5085504;28;20663;-81
2022/11/02 08:50:58;;;;;;;15.70;9.57;;;13.20;99.90;;;;;;5086821;28;20468;-82
2022/11/02 08:53:25;;;;;;;10.67;8.10;;;13.20;99.90;;;;;;5089584;28;20465;-82
2022/11/02 08:55:52;;;;;;;10.57;9.57;;;13.20;99.90;;;;;;5089288;28;20465;-81
2022/11/02 08:58:19;;;;;;;11.17;10.07;;;13.10;99.90;;;;;;5089191;28;20558;-81
2022/11/02 09:00:46;;;;;;;14.30;11.67;;;13.20;99.90;;;;;;5085242;28;20492;-82
2022/11/02 09:03:15;;;;;;;10.00;9.00;;;13.30;99.90;;;;;;5088115;28;20908;-81
2022/11/02 09:05:45;;;;;;;13.10;11.67;;;13.20;99.90;;;;;;5086991;28;20488;-81
2022/11/02 09:08:15;;;;;;;16.37;14.77;;;13.30;99.90;;;;;;5087781;28;20535;-81
2022/11/02 09:10:43;;;;;;;14.07;12.90;;;13.40;99.90;;;;;;5085226;28;20518;-81
2022/11/02 09:13:12;;;;;;;12.63;11.53;;;13.30;99.90;;;;;;5086993;28;20498;-82
2022/11/02 09:15:40;;;;;;;12.60;11.40;;;13.20;99.90;;;;;;5089301;28;20458;-82
2022/11/02 09:18:08;;;;;;;11.00;10.00;;;13.20;99.90;;;;;;5088394;28;20931;-81
2022/11/02 09:20:35;;;;;;;11.63;10.50;;;13.20;99.90;;;;;;5089874;28;20468;-81
2022/11/02 09:23:04;;;;;;;11.00;9.90;;;13.20;99.90;;;;;;5086862;28;20797;-81
2022/11/02 09:25:31;;;;;;;10.53;9.60;;;13.30;99.90;;;;;;5092253;28;20962;-81
2022/11/02 09:27:58;;;;;;;10.90;9.90;;;13.30;99.90;;;;;;5090576;28;20546;-82
2022/11/02 09:30:27;;;;;;;11.07;10.10;;;13.40;99.90;;;;;;5088773;28;20860;-82
2022/11/02 09:32:55;;;;;;;9.00;8.13;;;13.50;99.90;;;;;;5087219;28;20462;-82
2022/11/02 09:35:22;;;;;;;8.87;8.03;;;13.50;99.90;;;;;;5092356;28;20496;-82
2022/11/02 09:37:50;;;;;;;10.90;8.33;;;13.50;99.90;;;;;;5089179;28;20460;-82
2022/11/02 09:40:21;;;;;;;9.27;8.37;;;13.50;99.90;;;;;;5089277;28;20545;-82
2022/11/02 09:42:58;;;;;;;9.90;9.10;;;13.50;99.90;;;;;;5090625;28;20532;-82
2022/11/02 09:45:26;;;;;;;8.77;7.90;;;13.60;99.90;;;;;;5093031;28;20516;-82
2022/11/02 09:47:56;;;;;;;10.53;8.87;;;13.60;99.90;;;;;;5092619;28;20464;-82
2022/11/02 09:50:24;;;;;;;10.20;9.10;;;13.70;99.90;;;;;;5094210;28;20466;-82
2022/11/02 09:52:57;;;;;;;8.93;8.07;;;13.50;99.90;;;;;;5082797;28;20889;-82
2022/11/02 09:55:30;;;;;;;11.00;9.90;;;13.50;99.90;;;;;;5080575;28;20461;-81
2022/11/02 09:58:02;;;;;;;10.43;9.43;;;13.70;99.90;;;;;;5083224;28;20533;-82
2022/11/02 10:00:37;;;;;;;9.47;8.47;;;13.90;99.90;;;;;;5090453;28;20802;-82
2022/11/02 10:03:11;;;;;;;12.30;10.57;;;13.80;99.90;;;;;;5086717;28;20453;-82
2022/11/02 10:05:43;;;;;;;9.97;8.97;;;14.00;99.90;;;;;;5096408;28;20488;-81
2022/11/02 10:08:23;;;;;;;10.27;9.03;;;14.10;99.90;;;;;;5085614;28;20466;-82
2022/11/02 10:11:00;;;;;;;11.47;10.13;;;14.10;99.90;;;;;;5083353;28;20545;-82
2022/11/02 10:13:36;;;;;;;10.77;9.30;;;14.40;99.90;;;;;;5085267;28;20498;-81
2022/11/02 10:16:07;;;;;;;10.60;9.50;;;14.40;99.90;;;;;;5094252;28;20485;-81
2022/11/02 10:18:36;;;;;;;12.30;9.50;;;14.50;99.90;;;;;;5085554;28;20502;-81
2022/11/02 10:21:08;;;;;;;10.70;9.57;;;14.40;99.90;;;;;;5085624;28;20468;-82
2022/11/02 10:23:39;;;;;;;9.47;8.57;;;14.40;99.90;;;;;;5101398;28;20835;-81
2022/11/02 10:26:13;;;;;;;10.37;9.27;;;14.40;99.90;;;;;;5101661;28;21018;-81
2022/11/02 10:28:46;;;;;;;12.00;10.80;;;14.30;99.90;;;;;;5091605;28;20465;-81
2022/11/02 10:31:23;;;;;;;10.00;9.00;;;14.20;99.90;;;;;;5086887;28;20471;-81
2022/11/02 10:33:50;;;;;;;10.93;9.50;;;14.20;99.90;;;;;;5085067;28;20515;-81
2022/11/02 10:36:39;;;;;;;12.53;10.30;;;14.10;99.90;;;;;;5090202;28;20458;-81
2022/11/02 10:39:16;;;;;;;10.37;8.80;;;14.10;99.90;;;;;;5090680;28;21001;-81
2022/11/02 10:42:13;;;;;;;9.20;8.30;;;14.10;99.90;;;;;;5099504;28;20463;-80
2022/11/02 10:45:01;;;;;;;12.13;8.67;;;14.10;99.90;;;;;;5088501;28;20459;-80
2022/11/02 10:47:34;;;;;;;9.13;8.33;;;14.20;99.90;;;;;;5097275;28;20459;-80
2022/11/02 10:50:17;;;;;;;11.23;8.07;;;14.20;99.90;;;;;;5096762;28;20487;-81
2022/11/02 10:52:46;;;;;;;9.00;8.20;;;14.30;99.90;;;;;;5091107;28;20520;-81
2022/11/02 10:55:20;;;;;;;10.03;7.90;;;14.50;99.90;;;;;;5099546;28;20506;-80
2022/11/02 10:57:50;;;;;;;10.70;9.60;;;14.40;99.90;;;;;;5085003;28;20495;-80
2022/11/02 11:00:26;;;;;;;8.57;7.87;;;14.60;99.90;;;;;;5094688;28;21006;-80
2022/11/02 11:03:09;;;;;;;9.83;7.90;;;14.60;99.90;;;;;;5095472;28;20942;-81
2022/11/02 11:05:38;;;;;;;8.67;7.10;;;14.60;99.90;;;;;;5090351;28;20475;-81
2022/11/02 11:08:06;;;;;;;8.00;7.20;;;14.60;99.90;;;;;;5084589;28;20853;-80
2022/11/02 11:10:38;;;;;;;11.90;7.60;;;14.80;99.90;;;;;;5090316;28;20535;-80
2022/11/02 11:13:18;;;;;;;7.80;7.07;;;14.80;99.90;;;;;;5092937;28;20515;-80
2022/11/02 11:15:51;;;;;;;7.97;7.27;;;14.90;99.90;;;;;;5094985;28;20544;-80
2022/11/02 11:18:21;;;;;;;9.10;7.80;;;14.90;99.90;;;;;;5091742;27;20468;-80
2022/11/02 11:20:54;;;;;;;15.77;8.27;;;15.00;99.90;;;;;;5087448;28;20551;-80
2022/11/02 11:23:23;;;;;;;9.00;8.13;;;14.90;99.90;;;;;;5087241;28;20527;-80
2022/11/02 11:25:56;;;;;;;11.90;7.43;;;14.80;99.90;;;;;;5090844;28;20543;-80
2022/11/02 11:28:28;;;;;;;8.97;8.10;;;14.50;99.90;;;;;;5094241;28;20887;-80
2022/11/02 11:31:20;;;;;;;7.83;7.07;;;14.40;99.90;;;;;;5088825;28;20462;-81
2022/11/02 11:33:51;;;;;;;8.37;7.47;;;14.30;99.90;;;;;;5095295;28;20499;-82
2022/11/02 11:36:25;;;;;;;8.33;6.60;;;14.30;99.90;;;;;;5090869;28;20520;-82
2022/11/02 11:38:55;;;;;;;8.00;6.43;;;14.30;99.90;;;;;;5095356;28;20456;-82
2022/11/02 11:41:22;;;;;;;11.07;6.33;;;14.30;99.90;;;;;;5089001;28;20461;-82
2022/11/02 11:43:52;;;;;;;7.30;6.30;;;14.40;99.90;;;;;;5095721;28;20468;-82
2022/11/02 11:46:19;;;;;;;9.77;6.57;;;14.50;99.90;;;;;;5089543;28;20484;-81
2022/11/02 11:48:50;;;;;;;9.43;5.73;;;14.60;99.90;;;;;;5088972;28;20451;-82
2022/11/02 11:51:30;;;;;;;8.50;6.60;;;14.90;99.90;;;;;;5096218;28;20462;-82
2022/11/02 11:54:22;;;;;;;12.00;7.30;;;15.00;99.90;;;;;;5087831;28;20508;-81
2022/11/02 11:56:52;;;;;;;8.20;7.20;;;15.10;99.90;;;;;;5098186;28;20469;-83
2022/11/02 11:59:30;;;;;;;7.00;6.03;;;15.20;99.90;;;;;;5087080;28;20785;-81
2022/11/02 12:01:58;;;;;;;6.77;6.03;;;15.20;99.90;;;;;;5091623;27;20452;-81
2022/11/02 12:04:34;;;;;;;7.10;6.40;;;15.40;99.90;;;;;;5097924;28;20907;-81
2022/11/02 12:07:52;;;;;;;6.77;5.80;;;15.70;99.90;;;;;;5089039;28;20487;-81
2022/11/02 12:10:25;;;;;;;7.20;6.50;;;15.90;99.90;;;;;;5026109;28;21203;-81
2022/11/02 12:13:05;;;;;;;8.37;6.50;;;15.90;99.90;;;;;;5021259;28;21142;-81
2022/11/02 12:15:56;;;;;;;6.13;5.53;;;16.00;99.90;;;;;;5071346;28;21023;-81
2022/11/02 12:19:05;;;;;;;6.07;5.37;;;16.10;99.90;;;;;;5090242;28;20456;-81
2022/11/02 12:21:50;;;;;;;10.87;6.03;;;16.20;99.90;;;;;;5045613;28;20469;-81
2022/11/02 12:24:41;;;;;;;6.33;4.30;;;16.30;99.90;;;;;;5096505;28;20573;-81
2022/11/02 12:27:21;;;;;;;5.73;5.13;;;16.30;99.90;;;;;;5088576;28;20488;-81
2022/11/02 12:30:02;;;;;;;6.47;3.87;;;16.50;99.90;;;;;;5092326;28;21041;-81
2022/11/02 12:32:52;;;;;;;5.17;4.30;;;16.70;99.90;;;;;;5093264;28;20460;-81
2022/11/02 12:35:49;;;;;;;7.10;5.20;;;16.40;99.90;;;;;;5090811;28;20471;-81
2022/11/02 12:38:35;;;;;;;5.30;4.80;;;16.50;99.90;;;;;;5083960;28;20489;-81
2022/11/02 12:41:05;;;;;;;3.90;3.60;;;16.40;99.90;;;;;;5089209;28;21011;-80
2022/11/02 12:43:39;;;;;;;4.90;4.00;;;16.50;99.90;;;;;;5093397;27;21320;-80
2022/11/02 12:46:16;;;;;;;5.20;4.50;;;16.60;99.90;;;;;;5085407;28;20532;-80
2022/11/02 12:48:56;;;;;;;4.37;4.00;;;16.50;99.90;;;;;;5090106;28;21011;-81
2022/11/02 12:51:28;;;;;;;4.60;3.90;;;16.50;99.90;;;;;;5088771;28;20481;-81
2022/11/02 12:53:58;;;;;;;3.87;3.43;;;16.40;99.90;;;;;;5085248;28;21193;-80
2022/11/02 12:56:29;;;;;;;10.73;4.30;;;16.40;99.90;;;;;;5091834;28;20895;-80
2022/11/02 12:58:57;;;;;;;2.87;2.50;;;16.30;99.90;;;;;;5085191;28;20458;-80
2022/11/02 13:01:27;;;;;;;5.53;2.67;;;16.30;99.90;;;;;;5096994;28;20904;-81
2022/11/02 13:04:01;;;;;;;2.37;2.17;;;16.20;99.90;;;;;;5093313;28;20526;-81
2022/11/02 13:06:34;;;;;;;5.30;2.30;;;16.20;99.90;;;;;;5087987;28;21539;-81